createdAt,value
2023-05-05T00:01:02.381Z,101443.00
2023-05-05T00:03:32.970Z,101473.50
2023-05-05T00:06:01.524Z,101474.84
2023-05-05T00:08:29.844Z,101484.84
2023-05-05T00:10:59.375Z,101474.47
2023-05-05T00:13:27.774Z,101464.34
2023-05-05T00:15:56.267Z,101435.50
2023-05-05T00:18:24.734Z,101453.00
2023-05-05T00:20:54.789Z,101435.69
2023-05-05T00:23:23.238Z,101454.28
2023-05-05T00:25:51.634Z,101442.50
2023-05-05T00:28:19.988Z,101456.38
2023-05-05T00:30:48.755Z,101439.03
2023-05-05T00:33:17.396Z,101441.69
2023-05-05T00:35:45.856Z,101438.31
2023-05-05T00:38:15.639Z,101431.06
2023-05-05T00:40:44.193Z,101430.09
2023-05-05T00:43:13.159Z,101433.03
2023-05-05T00:45:44.325Z,101438.38
2023-05-05T00:48:13.114Z,101430.59
2023-05-05T00:50:44.469Z,101430.84
2023-05-05T00:53:13.468Z,101438.88
2023-05-05T00:55:43.312Z,101439.13
2023-05-05T00:58:13.464Z,101434.75
2023-05-05T01:00:42.777Z,101440.22
2023-05-05T01:03:13.180Z,101424.06
2023-05-05T01:05:59.073Z,101424.31
2023-05-05T01:08:41.075Z,101419.47
2023-05-05T01:11:19.256Z,101421.69
2023-05-05T01:13:56.665Z,101413.34
2023-05-05T01:16:28.890Z,101408.72
2023-05-05T01:19:02.589Z,101363.63
2023-05-05T01:21:33.507Z,101404.47
2023-05-05T01:24:46.990Z,101396.22
2023-05-05T01:27:46.368Z,101404.03
2023-05-05T01:30:47.702Z,101405.50
2023-05-05T01:33:24.704Z,101399.44
2023-05-05T01:35:56.834Z,101398.59
2023-05-05T01:38:33.352Z,101402.09
2023-05-05T01:41:11.700Z,101403.31
2023-05-05T01:43:44.027Z,101403.69
2023-05-05T01:46:14.496Z,101399.94
2023-05-05T01:48:46.693Z,101348.31
2023-05-05T01:51:18.891Z,101397.78
2023-05-05T01:53:48.237Z,101398.28
2023-05-05T01:56:17.763Z,101388.81
2023-05-05T01:58:47.896Z,101386.47
2023-05-05T02:01:18.588Z,101383.91
2023-05-05T02:03:51.253Z,101391.59
2023-05-05T02:06:22.170Z,101389.41
2023-05-05T02:08:53.075Z,101395.34
2023-05-05T02:11:22.722Z,101400.09
2023-05-05T02:13:53.089Z,101404.00
2023-05-05T02:16:24.104Z,101400.47
2023-05-05T02:18:55.804Z,101403.16
2023-05-05T02:21:24.480Z,101400.00
2023-05-05T02:23:52.965Z,101402.06
2023-05-05T02:26:24.592Z,101398.66
2023-05-05T02:29:03.361Z,101395.25
2023-05-05T02:31:34.216Z,101398.78
2023-05-05T02:34:08.628Z,101398.78
2023-05-05T02:36:40.921Z,101402.28
2023-05-05T02:39:15.016Z,101406.28
2023-05-05T02:41:46.531Z,101391.56
2023-05-05T02:44:26.084Z,101373.50
2023-05-05T02:46:55.707Z,101395.94
2023-05-05T02:49:26.543Z,101392.53
2023-05-05T02:51:59.947Z,101388.69
2023-05-05T02:54:34.180Z,101390.00
2023-05-05T02:57:05.900Z,101388.28
2023-05-05T02:59:47.608Z,101390.38
2023-05-05T03:02:25.989Z,101381.97
2023-05-05T03:05:00.916Z,101384.53
2023-05-05T03:07:36.005Z,101370.59
2023-05-05T03:10:09.466Z,101378.97
2023-05-05T03:12:47.354Z,101383.69
2023-05-05T03:15:26.602Z,101378.59
2023-05-05T03:17:57.810Z,101372.41
2023-05-05T03:20:30.119Z,101370.59
2023-05-05T03:23:03.343Z,101388.28
2023-05-05T03:25:50.765Z,101386.59
2023-05-05T03:28:31.640Z,101353.63
2023-05-05T03:31:05.772Z,101385.13
2023-05-05T03:33:37.017Z,101390.47
2023-05-05T03:36:07.633Z,101383.06
2023-05-05T03:38:36.276Z,101379.19
2023-05-05T03:41:05.453Z,101373.25
2023-05-05T03:43:34.670Z,101375.41
2023-05-05T03:46:03.656Z,101373.44
2023-05-05T03:48:32.500Z,101375.59
2023-05-05T03:51:01.283Z,101383.59
2023-05-05T03:53:33.869Z,101375.59
2023-05-05T03:56:05.113Z,101375.25
2023-05-05T03:58:33.629Z,101378.66
2023-05-05T04:01:02.003Z,101374.63
2023-05-05T04:03:30.873Z,101379.00
2023-05-05T04:05:59.506Z,101371.13
2023-05-05T04:08:28.130Z,101367.13
2023-05-05T04:10:58.484Z,101361.19
2023-05-05T04:13:26.860Z,101362.50
2023-05-05T04:15:56.311Z,101369.97
2023-05-05T04:18:24.765Z,101361.59
2023-05-05T04:20:53.074Z,101357.22
2023-05-05T04:23:21.625Z,101360.88
2023-05-05T04:25:51.021Z,101361.72
2023-05-05T04:28:22.190Z,101363.66
2023-05-05T04:30:51.381Z,101356.03
2023-05-05T04:33:20.168Z,101357.84
2023-05-05T04:35:50.682Z,101360.63
2023-05-05T04:38:21.176Z,101366.91
2023-05-05T04:40:50.374Z,101365.81
2023-05-05T04:43:21.105Z,101366.69
2023-05-05T04:45:56.296Z,101361.47
2023-05-05T04:48:28.942Z,101373.31
2023-05-05T04:50:58.387Z,101371.38
2023-05-05T04:53:27.989Z,101376.72
2023-05-05T04:55:56.481Z,101378.53
2023-05-05T04:58:26.453Z,101380.97
2023-05-05T05:00:55.164Z,101385.44
2023-05-05T05:03:24.035Z,101389.81
2023-05-05T05:05:53.313Z,101393.44
2023-05-05T05:08:21.732Z,101400.47
2023-05-05T05:10:50.267Z,101400.97
2023-05-05T05:13:18.872Z,101402.53
2023-05-05T05:15:51.172Z,101409.31
2023-05-05T05:18:20.005Z,101414.44
2023-05-05T05:20:49.448Z,101409.63
2023-05-05T05:23:17.951Z,101407.34
2023-05-05T05:25:47.267Z,101409.16
2023-05-05T05:28:18.455Z,101406.66
2023-05-05T05:30:53.388Z,101412.28
2023-05-05T05:33:21.930Z,101412.28
2023-05-05T05:35:50.902Z,101417.41
2023-05-05T05:38:21.697Z,101422.50
2023-05-05T05:40:54.635Z,101429.94
2023-05-05T05:43:24.412Z,101433.47
2023-05-05T05:45:54.375Z,101437.09
2023-05-05T05:48:24.967Z,101442.31
2023-05-05T05:50:54.049Z,101440.22
2023-05-05T05:53:23.710Z,101444.47
2023-05-05T05:55:53.539Z,101442.97
2023-05-05T05:58:21.921Z,101440.47
2023-05-05T06:00:50.688Z,101438.84
2023-05-05T06:03:21.144Z,101433.75
2023-05-05T06:05:50.663Z,101429.81
2023-05-05T06:08:20.152Z,101436.88
2023-05-05T06:10:52.915Z,101434.50
2023-05-05T06:13:22.679Z,101439.28
2023-05-05T06:15:53.593Z,101443.47
2023-05-05T06:18:23.469Z,101437.22
2023-05-05T06:20:53.245Z,101442.56
2023-05-05T06:23:24.834Z,101451.19
2023-05-05T06:25:58.213Z,101449.94
2023-05-05T06:28:26.680Z,101450.22
2023-05-05T06:30:55.073Z,101447.13
2023-05-05T06:33:25.039Z,101445.72
2023-05-05T06:35:53.628Z,101444.97
2023-05-05T06:38:22.122Z,101446.34
2023-05-05T06:40:50.802Z,101444.56
2023-05-05T06:43:19.581Z,101440.41
2023-05-05T06:45:54.726Z,101448.94
2023-05-05T06:48:24.619Z,101440.84
2023-05-05T06:50:52.965Z,101449.19
2023-05-05T06:53:21.348Z,101444.84
2023-05-05T06:55:49.718Z,101435.84
2023-05-05T06:58:18.203Z,101434.91
2023-05-05T07:00:46.671Z,101436.84
2023-05-05T07:03:15.333Z,101439.97
2023-05-05T07:05:45.183Z,101445.03
2023-05-05T07:08:14.068Z,101446.38
2023-05-05T07:10:42.467Z,101446.75
2023-05-05T07:13:11.011Z,101441.22
2023-05-05T07:15:46.370Z,101438.50
2023-05-05T07:18:16.504Z,101438.41
2023-05-05T07:20:46.648Z,101440.44
2023-05-05T07:23:15.057Z,101443.69
2023-05-05T07:25:44.002Z,101446.06
2023-05-05T07:28:12.642Z,101446.06
2023-05-05T07:30:41.769Z,101440.09
2023-05-05T07:33:11.362Z,101441.38
2023-05-05T07:35:39.792Z,101377.41
2023-05-05T07:38:10.947Z,101440.69
2023-05-05T07:40:39.417Z,101440.16
2023-05-05T07:43:07.947Z,101439.94
2023-05-05T07:45:36.328Z,101434.88
2023-05-05T07:48:05.051Z,101433.81
2023-05-05T07:50:33.681Z,101432.97
2023-05-05T07:53:10.806Z,101430.44
2023-05-05T07:55:45.569Z,101427.31
2023-05-05T07:58:14.097Z,101432.81
2023-05-05T08:00:43.898Z,101428.59
2023-05-05T08:03:12.548Z,101430.69
2023-05-05T08:05:40.986Z,101430.09
2023-05-05T08:08:09.413Z,101436.53
2023-05-05T08:10:37.833Z,101432.31
2023-05-05T08:13:07.787Z,101429.78
2023-05-05T08:15:36.182Z,101434.19
2023-05-05T08:18:04.872Z,101435.00
2023-05-05T08:20:33.396Z,101432.28
2023-05-05T08:23:01.744Z,101437.50
2023-05-05T08:25:30.226Z,101432.03
2023-05-05T08:27:58.695Z,101429.09
2023-05-05T08:30:28.856Z,101430.78
2023-05-05T08:32:57.363Z,101427.81
2023-05-05T08:35:25.942Z,101417.56
2023-05-05T08:37:56.003Z,101423.88
2023-05-05T08:40:33.354Z,101423.44
2023-05-05T08:43:02.531Z,101433.03
2023-05-05T08:45:32.986Z,101430.09
2023-05-05T08:48:03.487Z,101430.09
2023-05-05T08:50:33.207Z,101434.28
2023-05-05T08:53:17.493Z,101438.28
2023-05-05T08:55:52.577Z,101409.84
2023-05-05T08:58:21.432Z,101435.06
2023-05-05T09:00:53.170Z,101429.88
2023-05-05T09:03:22.021Z,101429.00
2023-05-05T09:05:53.508Z,101431.19
2023-05-05T09:08:22.284Z,101436.81
2023-05-05T09:10:52.475Z,101431.81
2023-05-05T09:13:20.997Z,101434.38
2023-05-05T09:15:49.510Z,101431.47
2023-05-05T09:18:20.269Z,101429.81
2023-05-05T09:20:48.975Z,101420.81
2023-05-05T09:23:18.728Z,101427.56
2023-05-05T09:25:48.372Z,101409.09
2023-05-05T09:28:18.218Z,101424.19
2023-05-05T09:30:48.210Z,101417.91
2023-05-05T09:33:32.119Z,101422.28
2023-05-05T09:36:00.611Z,101422.09
2023-05-05T09:38:28.944Z,101429.63
2023-05-05T09:40:57.397Z,101427.94
2023-05-05T09:43:26.038Z,101429.59
2023-05-05T09:46:07.532Z,101429.13
2023-05-05T09:48:37.694Z,101317.59
2023-05-05T09:51:06.089Z,101403.69
2023-05-05T09:53:41.090Z,101419.44
2023-05-05T09:56:10.477Z,101383.81
2023-05-05T09:58:38.863Z,101417.53
2023-05-05T10:01:07.382Z,101417.31
2023-05-05T10:03:53.392Z,101412.66
2023-05-05T10:06:22.220Z,101410.47
2023-05-05T10:09:02.699Z,101410.56
2023-05-05T10:11:31.703Z,101404.56
2023-05-05T10:14:00.229Z,101403.69
2023-05-05T10:16:30.416Z,101398.00
2023-05-05T10:19:04.301Z,101400.47
2023-05-05T10:21:35.538Z,101401.72
2023-05-05T10:24:10.863Z,101405.00
2023-05-05T10:26:43.271Z,101406.41
2023-05-05T10:29:18.661Z,101402.38
2023-05-05T10:31:51.196Z,101403.63
2023-05-05T10:34:29.834Z,101406.34
2023-05-05T10:37:00.282Z,101401.66
2023-05-05T10:39:29.363Z,101391.94
2023-05-05T10:42:02.295Z,101396.44
2023-05-05T10:44:33.166Z,101391.53
2023-05-05T10:47:03.316Z,101355.00
2023-05-05T10:49:42.038Z,101396.91
2023-05-05T10:52:19.481Z,101390.59
2023-05-05T10:54:53.643Z,101384.75
2023-05-05T10:57:25.296Z,101389.75
2023-05-05T10:59:53.967Z,101388.44
2023-05-05T11:02:27.456Z,101388.44
2023-05-05T11:05:18.099Z,101396.25
2023-05-05T11:07:47.450Z,101376.38
2023-05-05T11:10:18.919Z,101387.22
2023-05-05T11:13:22.217Z,101386.31
2023-05-05T11:15:54.169Z,101386.47
2023-05-05T11:18:39.692Z,101373.84
2023-05-05T11:21:17.443Z,101380.81
2023-05-05T11:23:47.902Z,101369.25
2023-05-05T11:26:17.524Z,101369.25
2023-05-05T11:29:06.630Z,101369.13
2023-05-05T11:31:35.167Z,101356.91
2023-05-05T11:34:29.670Z,101360.50
2023-05-05T11:37:02.712Z,101362.75
2023-05-05T11:39:52.031Z,101358.56
2023-05-05T11:42:30.376Z,101355.53
2023-05-05T11:44:59.148Z,101360.50
2023-05-05T11:47:30.009Z,101346.91
2023-05-05T11:49:58.676Z,101356.41
2023-05-05T11:52:28.712Z,101351.44
2023-05-05T11:55:03.863Z,101359.16
2023-05-05T11:57:32.387Z,101350.03
2023-05-05T12:00:02.654Z,101347.06
2023-05-05T12:02:34.043Z,101350.88
2023-05-05T12:05:03.458Z,101343.97
2023-05-05T12:07:34.554Z,101347.84
2023-05-05T12:10:02.985Z,101346.06
2023-05-05T12:12:38.832Z,101345.06
2023-05-05T12:15:08.391Z,101337.47
2023-05-05T12:17:42.862Z,101339.97
2023-05-05T12:20:13.197Z,101337.16
2023-05-05T12:22:43.966Z,101309.75
2023-05-05T12:25:12.602Z,101339.13
2023-05-05T12:27:41.450Z,101341.13
2023-05-05T12:30:15.723Z,101337.75
2023-05-05T12:32:44.678Z,101332.13
2023-05-05T12:35:14.103Z,101334.34
2023-05-05T12:37:44.382Z,101327.09
2023-05-05T12:40:46.753Z,101310.84
2023-05-05T12:43:31.638Z,101299.13
2023-05-05T12:46:05.189Z,101212.25
2023-05-05T12:48:34.158Z,101293.44
2023-05-05T12:51:18.345Z,101322.59
2023-05-05T12:53:48.974Z,101292.56
2023-05-05T12:56:40.609Z,101319.00
2023-05-05T12:59:09.911Z,101315.75
2023-05-05T13:01:50.541Z,101313.78
2023-05-05T13:04:19.886Z,101306.00
2023-05-05T13:06:49.647Z,101308.97
2023-05-05T13:09:26.834Z,101313.75
2023-05-05T13:11:55.999Z,101302.06
2023-05-05T13:14:24.788Z,101301.22
2023-05-05T13:16:54.164Z,101306.47
2023-05-05T13:19:23.807Z,101304.88
2023-05-05T13:21:52.355Z,101289.75
2023-05-05T13:24:28.553Z,101293.63
2023-05-05T13:27:06.292Z,101289.34
2023-05-05T13:29:34.790Z,101283.28
2023-05-05T13:32:03.213Z,101286.94
2023-05-05T13:34:31.754Z,101284.69
2023-05-05T13:37:00.088Z,101275.38
2023-05-05T13:39:28.472Z,101268.53
2023-05-05T13:41:56.786Z,101272.56
2023-05-05T13:44:26.769Z,101263.28
2023-05-05T13:46:55.471Z,101263.75
2023-05-05T13:49:23.968Z,101256.13
2023-05-05T13:51:52.377Z,101261.00
2023-05-05T13:54:20.835Z,101259.47
2023-05-05T13:56:49.283Z,101257.56
2023-05-05T13:59:17.699Z,101256.44
2023-05-05T14:01:48.526Z,101244.47
2023-05-05T14:04:17.065Z,101243.66
2023-05-05T14:06:45.605Z,101249.94
2023-05-05T14:09:14.396Z,101246.56
2023-05-05T14:11:42.782Z,101237.28
2023-05-05T14:14:11.484Z,101247.19
2023-05-05T14:16:39.845Z,101238.97
2023-05-05T14:19:09.645Z,101236.84
2023-05-05T14:21:38.041Z,101238.28
2023-05-05T14:24:07.069Z,101233.25
2023-05-05T14:26:35.425Z,101233.72
2023-05-05T14:29:04.331Z,101243.69
2023-05-05T14:31:33.011Z,101247.31
2023-05-05T14:34:01.746Z,101240.28
2023-05-05T14:36:31.788Z,101228.72
2023-05-05T14:39:00.266Z,101220.16
2023-05-05T14:41:28.611Z,101214.66
2023-05-05T14:43:57.415Z,101220.81
2023-05-05T14:46:26.299Z,101219.53
2023-05-05T14:48:54.880Z,101218.84
2023-05-05T14:51:23.275Z,101223.69
2023-05-05T14:53:53.310Z,101225.81
2023-05-05T14:56:23.992Z,101210.03
2023-05-05T14:58:52.464Z,101214.19
2023-05-05T15:01:21.831Z,101217.38
2023-05-05T15:03:50.551Z,101216.28
2023-05-05T15:06:19.266Z,101212.41
2023-05-05T15:08:47.749Z,101218.13
2023-05-05T15:11:17.524Z,101207.03
2023-05-05T15:13:45.959Z,101216.50
2023-05-05T15:16:14.463Z,101215.00
2023-05-05T15:18:42.987Z,101218.41
2023-05-05T15:21:11.515Z,101219.34
2023-05-05T15:23:40.942Z,101209.16
2023-05-05T15:26:10.379Z,101208.72
2023-05-05T15:28:40.177Z,101209.56
2023-05-05T15:31:08.607Z,101196.97
2023-05-05T15:33:37.112Z,101206.97
2023-05-05T15:36:05.850Z,101200.00
2023-05-05T15:38:34.329Z,101210.84
2023-05-05T15:41:02.915Z,101210.44
2023-05-05T15:43:32.379Z,101219.53
2023-05-05T15:46:02.246Z,101216.63
2023-05-05T15:48:31.388Z,101220.63
2023-05-05T15:50:59.844Z,101219.59
2023-05-05T15:53:28.301Z,101224.91
2023-05-05T15:55:56.683Z,101223.22
2023-05-05T15:58:25.202Z,101219.09
2023-05-05T16:00:53.757Z,101222.25
2023-05-05T16:03:23.929Z,101214.31
2023-05-05T16:05:52.589Z,101209.75
2023-05-05T16:08:20.953Z,101209.97
2023-05-05T16:10:49.489Z,101214.84
2023-05-05T16:13:18.051Z,101207.13
2023-05-05T16:15:46.536Z,101207.22
2023-05-05T16:18:14.841Z,101203.03
2023-05-05T16:20:45.660Z,101205.97
2023-05-05T16:23:14.062Z,101189.19
2023-05-05T16:25:42.477Z,101194.88
2023-05-05T16:28:10.942Z,101199.94
2023-05-05T16:30:39.975Z,101194.31
2023-05-05T16:33:08.416Z,101186.75
2023-05-05T16:35:37.103Z,101181.75
2023-05-05T16:38:06.930Z,101187.00
2023-05-05T16:40:37.785Z,101185.53
2023-05-05T16:43:06.682Z,101178.81
2023-05-05T16:45:35.369Z,101179.72
2023-05-05T16:48:06.180Z,101176.38
2023-05-05T16:50:36.688Z,101181.84
2023-05-05T16:53:06.599Z,101179.34
2023-05-05T16:55:35.060Z,101175.59
2023-05-05T16:58:03.543Z,101172.25
2023-05-05T17:00:32.076Z,101179.38
2023-05-05T17:03:00.593Z,101186.06
2023-05-05T17:05:29.175Z,101185.66
2023-05-05T17:07:58.612Z,101194.69
2023-05-05T17:10:28.382Z,101199.94
2023-05-05T17:12:56.883Z,101196.78
2023-05-05T17:15:25.777Z,101187.34
2023-05-05T17:17:54.796Z,101183.81
2023-05-05T17:20:23.339Z,101179.63
2023-05-05T17:22:51.767Z,101184.84
2023-05-05T17:25:20.459Z,101178.75
2023-05-05T17:27:50.462Z,101181.47
2023-05-05T17:30:19.078Z,101179.13
2023-05-05T17:32:48.362Z,101182.25
2023-05-05T17:37:46.457Z,101177.59
2023-05-05T17:40:15.005Z,101179.66
2023-05-05T17:42:43.522Z,101180.50
2023-05-05T17:45:14.603Z,101189.28
2023-05-05T17:47:43.116Z,101195.88
2023-05-05T17:50:12.219Z,101199.41
2023-05-05T17:52:42.090Z,101207.16
2023-05-05T17:55:11.519Z,101201.91
2023-05-05T17:57:40.256Z,101202.97
2023-05-05T18:00:10.218Z,101206.06
2023-05-05T18:02:42.878Z,101204.78
2023-05-05T18:05:13.406Z,101207.06
2023-05-05T18:07:41.921Z,101199.50
2023-05-05T18:10:11.891Z,101211.63
2023-05-05T18:12:40.378Z,101207.63
2023-05-05T18:15:10.132Z,101217.63
2023-05-05T18:17:38.917Z,101221.13
2023-05-05T18:20:15.217Z,101219.84
2023-05-05T18:22:43.873Z,101214.75
2023-05-05T18:25:12.602Z,101218.94
2023-05-05T18:27:41.806Z,101211.38
2023-05-05T18:30:11.922Z,101207.56
2023-05-05T18:32:41.437Z,101204.13
2023-05-05T18:35:11.927Z,101222.66
2023-05-05T18:37:41.619Z,101211.09
2023-05-05T18:40:11.234Z,101217.28
2023-05-05T18:42:39.769Z,101211.97
2023-05-05T18:45:09.516Z,101218.41
2023-05-05T18:47:39.630Z,101220.78
2023-05-05T18:50:10.639Z,101227.38
2023-05-05T18:52:39.298Z,101243.75
2023-05-05T18:55:08.290Z,101226.91
2023-05-05T18:57:36.941Z,101237.44
2023-05-05T19:00:06.223Z,101238.94
2023-05-05T19:02:34.746Z,101231.22
2023-05-05T19:05:04.003Z,101245.13
2023-05-05T19:07:35.803Z,101249.59
2023-05-05T19:10:05.999Z,101241.09
2023-05-05T19:12:34.516Z,101250.81
2023-05-05T19:15:02.952Z,101243.25
2023-05-05T19:17:32.840Z,101246.88
2023-05-05T19:20:03.699Z,101253.56
2023-05-05T19:22:39.099Z,101262.91
2023-05-05T19:25:10.713Z,101257.56
2023-05-05T19:27:41.230Z,101267.59
2023-05-05T19:30:11.805Z,101268.16
2023-05-05T19:32:40.217Z,101265.72
2023-05-05T19:35:10.774Z,101271.38
2023-05-05T19:37:40.834Z,101276.84
2023-05-05T19:40:10.525Z,101272.22
2023-05-05T19:42:39.341Z,101273.28
2023-05-05T19:45:09.320Z,101281.06
2023-05-05T19:47:37.908Z,101272.00
2023-05-05T19:50:07.855Z,101272.22
2023-05-05T19:52:36.861Z,101267.00
2023-05-05T19:55:07.817Z,101270.84
2023-05-05T19:57:37.380Z,101251.72
2023-05-05T20:00:07.328Z,101269.59
2023-05-05T20:02:37.040Z,101269.47
2023-05-05T20:05:06.273Z,101267.19
2023-05-05T20:07:34.740Z,101263.84
2023-05-05T20:10:03.188Z,101274.00
2023-05-05T20:12:33.068Z,101266.28
2023-05-05T20:15:01.459Z,101271.84
2023-05-05T20:17:29.926Z,101273.38
2023-05-05T20:19:58.960Z,101271.03
2023-05-05T20:22:27.332Z,101274.06
2023-05-05T20:24:55.803Z,101265.63
2023-05-05T20:27:25.941Z,101265.50
2023-05-05T20:29:56.826Z,101271.72
2023-05-05T20:32:25.346Z,101260.41
2023-05-05T20:34:53.842Z,101272.22
2023-05-05T20:37:22.450Z,101273.91
2023-05-05T20:39:51.179Z,101278.28
2023-05-05T20:42:19.548Z,101273.03
2023-05-05T20:44:47.882Z,101269.28
2023-05-05T20:47:17.650Z,101268.41
2023-05-05T20:49:46.050Z,101272.78
2023-05-05T20:52:15.396Z,101273.63
2023-05-05T20:54:43.869Z,101266.38
2023-05-05T20:57:12.338Z,101274.63
2023-05-05T20:59:41.797Z,101279.00
2023-05-05T21:02:10.396Z,101279.97
2023-05-05T21:04:40.272Z,101283.47
2023-05-05T21:07:08.815Z,101286.31
2023-05-05T21:09:37.542Z,101285.97
2023-05-05T21:12:06.347Z,101283.75
2023-05-05T21:14:34.798Z,101279.84
2023-05-05T21:17:03.357Z,101276.94
2023-05-05T21:19:31.770Z,101279.47
2023-05-05T21:22:02.317Z,101281.63
2023-05-05T21:24:30.739Z,101272.50
2023-05-05T21:26:59.046Z,101276.66
2023-05-05T21:29:27.461Z,101275.59
2023-05-05T21:31:56.012Z,101267.19
2023-05-05T21:34:24.653Z,101266.47
2023-05-05T21:36:53.193Z,101264.63
2023-05-05T21:39:23.040Z,101258.22
2023-05-05T21:41:51.596Z,101271.31
2023-05-05T21:44:20.526Z,101269.41
2023-05-05T21:46:48.959Z,101259.91
2023-05-05T21:49:18.489Z,101265.78
2023-05-05T21:51:47.590Z,101262.84
2023-05-05T21:54:16.045Z,101261.78
2023-05-05T21:56:45.952Z,101260.69
2023-05-05T21:59:15.317Z,101258.34
2023-05-05T22:01:47.124Z,101206.28
2023-05-05T22:04:15.741Z,101243.56
2023-05-05T22:06:44.133Z,101248.59
2023-05-05T22:09:12.690Z,101248.06
2023-05-05T22:11:41.133Z,101256.75
2023-05-05T22:14:12.042Z,101258.19
2023-05-05T22:16:40.570Z,101262.50
2023-05-05T22:19:09.018Z,101256.75
2023-05-05T22:21:37.498Z,101258.38
2023-05-05T22:24:07.397Z,101249.06
2023-05-05T22:26:35.831Z,101252.34
2023-05-05T22:29:04.400Z,101252.16
2023-05-05T22:31:34.532Z,101256.13
2023-05-05T22:34:03.332Z,101253.16
2023-05-05T22:36:31.720Z,101257.00
2023-05-05T22:39:00.315Z,101253.91
2023-05-05T22:41:28.717Z,101258.44
2023-05-05T22:43:57.657Z,101250.22
2023-05-05T22:46:26.238Z,101249.94
2023-05-05T22:48:56.040Z,101252.31
2023-05-05T22:51:24.585Z,101246.53
2023-05-05T22:53:53.032Z,101249.53
2023-05-05T22:56:21.460Z,101238.94
2023-05-05T22:58:50.083Z,101238.34
2023-05-05T23:01:18.678Z,101248.09
2023-05-05T23:03:47.152Z,101249.38
2023-05-05T23:06:17.078Z,101255.91
2023-05-05T23:08:45.480Z,101249.13
2023-05-05T23:11:14.862Z,101245.09
2023-05-05T23:13:44.259Z,101246.09
2023-05-05T23:16:13.120Z,101246.38
2023-05-05T23:18:41.542Z,101241.84
2023-05-05T23:21:11.662Z,101232.81
2023-05-05T23:23:41.477Z,101230.81
2023-05-05T23:26:09.851Z,101235.50
2023-05-05T23:28:38.196Z,101233.94
2023-05-05T23:31:06.643Z,101226.88
2023-05-05T23:33:35.205Z,101236.63
2023-05-05T23:36:03.727Z,101233.09
2023-05-05T23:38:32.147Z,101235.78
2023-05-05T23:41:02.002Z,101232.97
2023-05-05T23:43:31.751Z,101229.28
2023-05-05T23:46:00.228Z,101226.44
2023-05-05T23:48:28.676Z,101230.34
2023-05-05T23:50:57.088Z,101229.75
2023-05-05T23:53:25.880Z,101230.97
2023-05-05T23:55:54.359Z,101226.88
2023-05-05T23:58:24.190Z,101219.78
